createdAt,value
2018-06-22T05:00:54.595Z,1.40
2018-06-22T05:05:57.999Z,1.07
2018-06-22T05:11:01.343Z,1.00
2018-06-22T05:16:04.662Z,1.80
2018-06-22T05:21:07.987Z,0.90
2018-06-22T05:26:12.088Z,1.47
2018-06-22T05:31:15.414Z,0.97
2018-06-22T05:36:18.751Z,1.00
2018-06-22T05:41:22.192Z,1.40
2018-06-22T05:46:25.512Z,1.50
2018-06-22T05:51:28.846Z,1.23
2018-06-22T05:56:32.191Z,1.10
2018-06-22T06:01:36.293Z,1.20
2018-06-22T06:06:39.733Z,1.17
2018-06-22T06:11:43.859Z,1.30
2018-06-22T06:16:47.237Z,1.00
2018-06-22T06:21:50.524Z,1.47
2018-06-22T06:26:53.866Z,1.07
2018-06-22T06:31:57.213Z,1.27
2018-06-22T06:37:01.312Z,1.20
2018-06-22T06:42:04.635Z,1.40
2018-06-22T06:47:07.971Z,1.10
2018-06-22T06:52:12.064Z,1.13
2018-06-22T06:57:15.386Z,1.00
2018-06-22T07:02:18.719Z,1.03
2018-06-22T07:07:22.038Z,1.27
2018-06-22T07:12:26.124Z,1.03
2018-06-22T07:17:29.448Z,1.27
2018-06-22T07:22:32.775Z,1.00
2018-06-22T07:27:36.116Z,1.00
2018-06-22T07:32:40.218Z,1.63
2018-06-22T07:37:43.555Z,1.30
2018-06-22T07:42:46.889Z,1.00
2018-06-22T07:47:50.218Z,1.00
2018-06-22T07:52:53.550Z,1.37
2018-06-22T07:57:56.948Z,1.30
2018-06-22T08:03:00.237Z,1.20
2018-06-22T08:08:03.569Z,1.30
2018-06-22T08:13:06.891Z,1.17
2018-06-22T08:18:10.225Z,1.23
2018-06-22T08:23:13.557Z,1.80
2018-06-22T08:28:16.879Z,1.43
2018-06-22T08:33:20.211Z,1.40
2018-06-22T08:38:23.545Z,1.50
2018-06-22T08:43:26.886Z,1.50
2018-06-22T08:48:30.215Z,1.40
2018-06-22T08:53:33.558Z,1.50
2018-06-22T08:58:36.884Z,1.43
2018-06-22T09:03:40.218Z,1.23
2018-06-22T09:08:43.555Z,1.83
2018-06-22T09:13:46.898Z,1.27
2018-06-22T09:18:51.023Z,1.60
2018-06-22T09:23:55.223Z,1.67
2018-06-22T09:28:58.691Z,1.60
2018-06-22T09:34:02.016Z,1.30
2018-06-22T09:39:05.391Z,1.30
2018-06-22T09:44:08.727Z,1.37
2018-06-22T09:49:12.058Z,1.47
2018-06-22T09:54:15.390Z,1.50
2018-06-22T09:59:19.492Z,1.83
2018-06-22T10:04:22.823Z,1.40
2018-06-22T10:09:26.171Z,1.73
2018-06-22T10:14:29.496Z,1.30
2018-06-22T10:19:33.605Z,1.20
2018-06-22T10:24:36.949Z,1.30
2018-06-22T10:29:40.294Z,1.33
2018-06-22T10:34:43.631Z,1.10
2018-06-22T10:39:46.963Z,1.60
2018-06-22T10:44:50.313Z,1.13
2018-06-22T10:49:53.636Z,1.40
2018-06-22T10:54:56.971Z,1.37
2018-06-22T11:00:01.099Z,1.87
2018-06-22T11:05:04.429Z,1.80
2018-06-22T11:10:07.758Z,1.63
2018-06-22T11:15:11.082Z,1.43
2018-06-22T11:20:15.179Z,2.10
2018-06-22T11:25:19.311Z,1.60
2018-06-22T11:30:22.632Z,1.60
2018-06-22T11:35:25.961Z,1.40
2018-06-22T11:40:29.286Z,1.40
2018-06-22T11:45:32.619Z,1.47
2018-06-22T11:50:35.964Z,1.57
2018-06-22T11:55:40.068Z,1.50
2018-06-22T12:00:43.399Z,1.50
2018-06-22T12:05:47.287Z,1.10
2018-06-22T12:10:52.098Z,1.63
2018-06-22T12:15:55.446Z,1.20
2018-06-22T12:20:59.576Z,0.87
2018-06-22T12:26:02.902Z,1.00
2018-06-22T12:31:06.230Z,1.10
2018-06-22T12:36:09.553Z,0.77
2018-06-22T12:41:12.889Z,0.67
2018-06-22T12:46:16.220Z,0.90
2018-06-22T12:51:19.547Z,0.67
2018-06-22T12:56:23.642Z,0.80
2018-06-22T13:01:27.143Z,0.80
2018-06-22T13:06:30.466Z,0.80
2018-06-22T13:11:33.812Z,0.43
2018-06-22T13:16:37.926Z,0.87
2018-06-22T13:21:41.359Z,0.90
2018-06-22T13:26:46.702Z,0.77
2018-06-22T13:31:51.536Z,0.67
2018-06-22T13:36:56.625Z,0.77
2018-06-22T13:42:01.566Z,0.73
2018-06-22T13:47:08.129Z,0.70
2018-06-22T13:52:14.776Z,1.00
2018-06-22T13:57:18.119Z,0.70
2018-06-22T14:02:21.482Z,1.00
2018-06-22T14:07:24.835Z,0.80
2018-06-22T14:12:28.167Z,0.70
2018-06-22T14:17:31.528Z,0.70
2018-06-22T14:22:34.878Z,0.80
2018-06-22T14:27:38.228Z,0.87
2018-06-22T14:32:41.570Z,0.80
2018-06-22T14:37:44.903Z,0.70
2018-06-22T14:42:48.235Z,0.60
2018-06-22T14:47:51.581Z,0.70
2018-06-22T14:52:54.904Z,0.90
2018-06-22T15:03:46.863Z,1.12
2018-06-22T15:08:50.191Z,0.80
2018-06-22T15:13:53.515Z,0.67
2018-06-22T15:18:57.604Z,0.80
2018-06-22T15:24:00.926Z,0.60
2018-06-22T15:29:04.247Z,0.87
2018-06-22T15:34:07.578Z,0.83
2018-06-22T15:44:54.505Z,0.90
2018-06-22T15:55:29.763Z,0.80
2018-06-22T16:00:33.096Z,0.50
2018-06-22T16:05:36.432Z,1.17
2018-06-22T16:10:39.768Z,0.93
2018-06-22T16:21:32.852Z,1.20
2018-06-22T16:32:07.736Z,1.00
2018-06-22T16:37:11.039Z,0.50
2018-06-22T16:42:14.380Z,0.60
2018-06-22T16:47:17.704Z,0.73
2018-06-22T16:52:21.035Z,0.87
2018-06-22T16:57:24.376Z,0.70
2018-06-22T17:02:27.706Z,0.80
2018-06-22T17:07:31.043Z,0.90
2018-06-22T17:12:39.962Z,0.63
2018-06-22T17:23:11.239Z,0.75
2018-06-22T17:28:14.563Z,0.70
2018-06-22T17:33:18.138Z,0.60
2018-06-22T17:38:22.340Z,0.80
2018-06-22T17:43:25.775Z,0.70
2018-06-22T17:48:29.213Z,0.80
2018-06-22T17:53:33.343Z,0.70
2018-06-22T17:58:37.442Z,0.93
2018-06-22T18:09:11.659Z,0.80
2018-06-22T18:14:14.987Z,0.50
2018-06-22T18:19:18.321Z,1.00
2018-06-22T18:24:21.675Z,1.00
2018-06-22T18:29:25.766Z,0.80
2018-06-22T18:34:29.107Z,0.83
2018-06-22T18:39:32.434Z,0.70
2018-06-22T18:44:35.762Z,0.90
2018-06-22T18:49:39.103Z,0.80
2018-06-22T18:54:47.899Z,0.80
2018-06-22T18:59:51.227Z,0.70
2018-06-22T19:04:54.596Z,1.00
2018-06-22T19:09:57.891Z,0.97
2018-06-22T19:15:01.219Z,0.70
2018-06-22T19:20:04.555Z,1.03
2018-06-22T19:25:08.660Z,0.90
2018-06-22T19:30:11.991Z,0.90
2018-06-22T19:35:15.323Z,1.00
2018-06-22T19:40:19.410Z,0.90
2018-06-22T19:51:10.119Z,1.15
2018-06-22T19:56:13.445Z,1.23
2018-06-22T20:01:16.791Z,0.77
2018-06-22T20:06:20.114Z,0.90
2018-06-22T20:11:23.449Z,0.80
2018-06-22T20:16:27.538Z,0.70
2018-06-22T20:21:30.855Z,1.10
2018-06-22T20:26:34.192Z,1.30
2018-06-22T20:31:37.522Z,1.07
2018-06-22T20:42:25.211Z,1.17
2018-06-22T20:47:28.540Z,1.00
2018-06-22T20:52:31.866Z,1.20
2018-06-22T20:57:35.203Z,1.13
2018-06-22T21:02:38.531Z,1.13
2018-06-22T21:07:41.858Z,1.47
2018-06-22T21:12:45.284Z,1.13
2018-06-22T21:17:48.535Z,1.60
2018-06-22T21:22:51.868Z,1.30
2018-06-22T21:27:55.196Z,1.00
2018-06-22T21:38:48.006Z,1.60
2018-06-22T21:43:52.114Z,1.20
2018-06-22T21:48:55.439Z,1.40
2018-06-22T21:53:58.774Z,1.63
2018-06-22T21:59:02.125Z,1.40
2018-06-22T22:04:05.550Z,1.40
2018-06-22T22:09:08.883Z,1.40
2018-06-22T22:14:12.218Z,1.37
2018-06-22T22:19:15.550Z,1.60
2018-06-22T22:24:19.639Z,1.40
2018-06-22T22:29:22.961Z,1.60
